Terminal Aerodrome Forecast
Issued by NWS Quad Cities IA IL

Home | Current Version | Previous Version | Text Only | Print | Product List | Glossary On
Versions: 1 2 3 4 5 6 7 8 9 10 11 12 13 14 15 16 17 18 19
000
FTUS43 KDVN 181300 AAB
TAFDBQ
TAF AMD
KDBQ 181321Z 1813/1912 04008KT 1/2SM FG VV002
     FM181600 08004KT P6SM SKC
     FM181700 12007KT P6SM SCT040
     FM190000 11003KT P6SM SKC=

USA.gov is the U.S. government's official web portal to all federal, state and local government web resources and services.